Time;durP1;ratioP1;P1;durP2;ratioP2;P2;SDS_P1;SDS_P2;PMS_P1;PMS_P2;Temp;Humidity;BMP_temperature;BMP_pressure;BME280_temperature;BME280_humidity;BME280_pressure;Samples;Min_cycle;Max_cycle;Signal;HPM_P1;HPM_P2
2021/07/24 00:00:08;;;;;;;15.63;11.02;;;;;;;;;;6232850;28;20080;-80
2021/07/24 00:03:10;;;;;;;14.82;10.52;;;;;;;;;;6208088;28;20070;-80
2021/07/24 00:06:12;;;;;;;16.00;11.75;;;;;;;;;;6223620;28;20709;-81
2021/07/24 00:09:14;;;;;;;16.63;12.10;;;;;;;;;;6231514;28;20088;-81
2021/07/24 00:12:16;;;;;;;18.83;11.48;;;;;;;;;;6211321;28;20053;-81
2021/07/24 00:15:18;;;;;;;18.75;11.43;;;;;;;;;;6237934;28;20049;-81
2021/07/24 00:18:19;;;;;;;16.80;11.40;;;;;;;;;;6248242;28;20057;-81
2021/07/24 00:21:21;;;;;;;17.45;11.93;;;;;;;;;;6221240;28;20064;-81
2021/07/24 00:24:23;;;;;;;18.50;11.80;;;;;;;;;;6205413;28;20053;-81
2021/07/24 00:27:24;;;;;;;17.13;11.68;;;;;;;;;;6213103;28;20049;-81
2021/07/24 00:30:26;;;;;;;19.48;12.68;;;;;;;;;;6249376;28;20076;-81
2021/07/24 00:33:33;;;;;;;18.60;12.13;;;;;;;;;;6231557;28;20029;-81
2021/07/24 00:36:35;;;;;;;21.05;12.60;;;;;;;;;;6216920;28;20052;-81
2021/07/24 00:39:37;;;;;;;17.67;11.43;;;;;;;;;;6233857;28;20081;-79
2021/07/24 00:42:39;;;;;;;16.08;11.50;;;;;;;;;;6250403;28;20172;-80
2021/07/24 00:45:48;;;;;;;17.20;12.30;;;;;;;;;;6248603;28;20041;-79
2021/07/24 00:48:53;;;;;;;17.70;12.43;;;;;;;;;;6237418;28;20092;-81
2021/07/24 00:52:15;;;;;;;;;;;;;;;;;;6231811;28;20049;-80
2021/07/24 00:55:17;;;;;;;17.70;12.52;;;;;;;;;;6236694;28;19963;-81
2021/07/24 00:58:23;;;;;;;17.63;11.93;;;;;;;;;;6238528;28;20105;-80
2021/07/24 01:01:25;;;;;;;18.58;12.45;;;;;;;;;;6237031;28;20068;-81
2021/07/24 01:04:27;;;;;;;17.33;12.23;;;;;;;;;;6229503;28;20041;-81
2021/07/24 01:07:33;;;;;;;16.40;11.70;;;;;;;;;;6214453;28;20046;-81
2021/07/24 01:10:37;;;;;;;19.75;12.88;;;;;;;;;;6238176;28;20045;-81
2021/07/24 01:13:40;;;;;;;21.05;13.32;;;;;;;;;;6230006;28;20042;-81
2021/07/24 01:16:42;;;;;;;21.90;12.95;;;;;;;;;;6229535;28;20129;-80
2021/07/24 01:19:53;;;;;;;21.10;13.88;;;;;;;;;;6240417;28;20049;-81
2021/07/24 01:22:56;;;;;;;20.10;13.02;;;;;;;;;;6221144;28;20057;-79
2021/07/24 01:25:58;;;;;;;21.38;14.25;;;;;;;;;;6237953;28;20101;-82
2021/07/24 01:29:04;;;;;;;24.88;15.18;;;;;;;;;;6237452;28;20044;-81
2021/07/24 01:32:07;;;;;;;;;;;;;;;;;;6222328;28;20037;-81
2021/07/24 01:35:10;;;;;;;21.15;14.48;;;;;;;;;;6238485;28;19921;-81
2021/07/24 01:38:14;;;;;;;22.38;14.32;;;;;;;;;;6223255;28;20038;-80
2021/07/24 01:41:17;;;;;;;18.80;12.57;;;;;;;;;;6237346;28;20222;-81
2021/07/24 01:44:19;;;;;;;19.90;12.25;;;;;;;;;;6218817;28;20041;-81
2021/07/24 01:47:22;;;;;;;16.65;11.95;;;;;;;;;;6231030;28;20097;-81
2021/07/24 01:54:22;;;;;;;19.63;13.00;;;;;;;;;;6139711;29;20047;-81
2021/07/24 01:57:24;;;;;;;19.17;12.88;;;;;;;;;;6152942;28;20047;-81
2021/07/24 02:00:35;;;;;;;17.35;12.65;;;;;;;;;;6213141;28;20050;-81
2021/07/24 02:04:17;;;;;;;21.30;13.48;;;;;;;;;;6213436;28;20046;-81
2021/07/24 02:07:25;;;;;;;21.73;13.47;;;;;;;;;;6208680;28;20123;-81
2021/07/24 02:10:32;;;;;;;21.83;14.07;;;;;;;;;;6213737;28;20517;-81
2021/07/24 02:13:36;;;;;;;19.23;13.18;;;;;;;;;;6232148;28;20050;-81
2021/07/24 02:16:40;;;;;;;21.70;14.27;;;;;;;;;;6255112;28;20045;-81
2021/07/24 02:19:44;;;;;;;21.50;14.93;;;;;;;;;;6235601;28;20049;-81
2021/07/24 02:22:46;;;;;;;20.23;14.10;;;;;;;;;;6251902;28;20045;-82
2021/07/24 02:25:49;;;;;;;19.65;13.98;;;;;;;;;;6224759;28;20445;-81
2021/07/24 02:28:51;;;;;;;20.52;14.10;;;;;;;;;;6226589;28;20046;-81
2021/07/24 02:31:55;;;;;;;20.65;13.52;;;;;;;;;;6229784;28;20038;-80
2021/07/24 02:34:58;;;;;;;20.13;13.70;;;;;;;;;;6252076;28;20064;-81
2021/07/24 02:38:00;;;;;;;21.45;13.98;;;;;;;;;;6250530;28;20073;-81
2021/07/24 02:41:05;;;;;;;18.70;12.90;;;;;;;;;;6251481;28;20045;-81
2021/07/24 02:44:07;;;;;;;19.10;13.25;;;;;;;;;;6250122;28;20038;-80
2021/07/24 02:47:09;;;;;;;17.58;12.40;;;;;;;;;;6233063;28;20044;-81
2021/07/24 02:50:14;;;;;;;17.23;12.48;;;;;;;;;;6234362;28;20045;-81
2021/07/24 02:53:16;;;;;;;17.27;12.40;;;;;;;;;;6233932;28;20140;-80
2021/07/24 02:56:18;;;;;;;19.05;12.25;;;;;;;;;;6217379;28;20057;-81
2021/07/24 02:59:20;;;;;;;19.05;13.55;;;;;;;;;;6249338;28;20522;-81
2021/07/24 03:02:22;;;;;;;20.15;13.60;;;;;;;;;;6247850;28;20617;-83
2021/07/24 03:05:24;;;;;;;18.90;12.63;;;;;;;;;;6267148;28;20048;-83
2021/07/24 03:08:26;;;;;;;19.92;13.77;;;;;;;;;;6265105;28;20037;-82
2021/07/24 03:11:27;;;;;;;22.90;14.52;;;;;;;;;;6229741;28;20038;-84
2021/07/24 03:14:29;;;;;;;19.90;14.20;;;;;;;;;;6222748;28;20037;-84
2021/07/24 03:17:32;;;;;;;20.17;13.15;;;;;;;;;;6197904;28;20049;-85
2021/07/24 03:20:33;;;;;;;18.33;13.07;;;;;;;;;;6241437;28;20053;-84
2021/07/24 03:23:35;;;;;;;19.45;14.30;;;;;;;;;;6225241;28;20124;-83
2021/07/24 03:26:39;;;;;;;20.10;13.45;;;;;;;;;;6229251;28;20052;-83
2021/07/24 03:29:41;;;;;;;20.92;13.15;;;;;;;;;;6226995;28;20061;-83
2021/07/24 03:32:43;;;;;;;17.98;12.90;;;;;;;;;;6244794;28;20045;-83
2021/07/24 03:35:44;;;;;;;20.92;13.55;;;;;;;;;;6209486;28;20037;-84
2021/07/24 03:38:46;;;;;;;17.92;12.45;;;;;;;;;;6224337;28;20403;-84
2021/07/24 03:41:50;;;;;;;19.77;13.40;;;;;;;;;;6224759;28;20049;-83
2021/07/24 03:44:52;;;;;;;19.88;14.05;;;;;;;;;;6229821;28;20784;-83
2021/07/24 03:47:54;;;;;;;20.50;14.80;;;;;;;;;;6207863;28;20119;-83
2021/07/24 03:50:56;;;;;;;22.17;14.27;;;;;;;;;;6241083;28;20045;-83
2021/07/24 03:53:57;;;;;;;25.05;15.68;;;;;;;;;;6215540;28;20048;-83
2021/07/24 03:56:59;;;;;;;25.02;15.90;;;;;;;;;;6224698;28;20049;-83
2021/07/24 04:00:03;;;;;;;21.98;15.65;;;;;;;;;;6243683;28;20099;-83
2021/07/24 04:03:08;;;;;;;23.02;14.25;;;;;;;;;;6237021;28;20045;-84
2021/07/24 04:06:23;;;;;;;20.42;14.73;;;;;;;;;;6205337;28;20084;-83
2021/07/24 04:09:26;;;;;;;22.10;13.25;;;;;;;;;;6209536;28;20046;-83
2021/07/24 04:12:30;;;;;;;21.77;15.32;;;;;;;;;;6188003;28;20084;-83
2021/07/24 04:15:36;;;;;;;21.02;14.25;;;;;;;;;;6188003;28;20499;-83
2021/07/24 04:18:44;;;;;;;21.67;14.23;;;;;;;;;;6195675;28;20046;-83
2021/07/24 04:21:47;;;;;;;22.77;15.30;;;;;;;;;;6182984;28;20041;-83
2021/07/24 04:24:50;;;;;;;22.98;14.70;;;;;;;;;;6200147;28;20136;-84
2021/07/24 04:27:55;;;;;;;22.70;15.88;;;;;;;;;;6237937;28;20037;-84
2021/07/24 04:30:58;;;;;;;20.45;14.23;;;;;;;;;;6199596;28;20685;-83
2021/07/24 04:34:03;;;;;;;21.98;14.77;;;;;;;;;;6207206;28;20042;-83
2021/07/24 04:37:09;;;;;;;19.40;13.73;;;;;;;;;;6217845;28;20064;-83
2021/07/24 04:40:12;;;;;;;20.52;14.02;;;;;;;;;;6193450;28;20056;-85
2021/07/24 04:43:16;;;;;;;20.45;13.88;;;;;;;;;;6186694;28;20045;-83
2021/07/24 04:46:21;;;;;;;22.08;14.45;;;;;;;;;;6214938;28;20052;-84
2021/07/24 04:49:24;;;;;;;21.63;14.93;;;;;;;;;;6207980;28;20049;-84
2021/07/24 04:52:28;;;;;;;24.30;15.73;;;;;;;;;;6192490;28;160684;-84
2021/07/24 04:55:41;;;;;;;23.90;16.02;;;;;;;;;;6193670;28;20042;-84
2021/07/24 04:58:50;;;;;;;25.48;16.65;;;;;;;;;;6156415;28;20065;-84
2021/07/24 05:01:52;;;;;;;23.05;15.82;;;;;;;;;;6209191;28;20176;-85
2021/07/24 05:04:57;;;;;;;24.17;16.27;;;;;;;;;;6201571;28;20038;-83
2021/07/24 05:07:59;;;;;;;26.80;16.30;;;;;;;;;;6137795;28;20038;-84
2021/07/24 05:11:06;;;;;;;24.63;15.18;;;;;;;;;;6157782;28;20830;-83
2021/07/24 05:14:08;;;;;;;23.42;14.30;;;;;;;;;;6196448;28;20034;-83
2021/07/24 05:17:12;;;;;;;20.98;14.05;;;;;;;;;;6179656;28;20073;-83
2021/07/24 05:20:14;;;;;;;19.98;13.73;;;;;;;;;;6202208;28;20145;-83
2021/07/24 05:23:16;;;;;;;22.83;14.30;;;;;;;;;;6220986;28;20050;-83
2021/07/24 05:26:17;;;;;;;21.50;15.25;;;;;;;;;;6232764;28;20053;-83
2021/07/24 05:29:19;;;;;;;22.15;15.00;;;;;;;;;;6206352;28;20419;-83
2021/07/24 05:32:21;;;;;;;20.55;15.18;;;;;;;;;;6202115;28;20045;-83
2021/07/24 05:35:23;;;;;;;25.77;14.77;;;;;;;;;;6206327;28;20061;-83
2021/07/24 05:38:24;;;;;;;22.73;15.55;;;;;;;;;;6202200;28;20434;-83
2021/07/24 05:41:26;;;;;;;23.60;14.18;;;;;;;;;;6216868;28;20045;-83
2021/07/24 05:44:28;;;;;;;19.23;14.07;;;;;;;;;;6216474;28;20049;-83
2021/07/24 05:47:33;;;;;;;20.15;13.65;;;;;;;;;;6216455;28;20041;-84
2021/07/24 05:50:35;;;;;;;20.85;13.80;;;;;;;;;;6200014;28;20077;-83
2021/07/24 05:53:37;;;;;;;18.52;13.10;;;;;;;;;;6185010;28;20424;-83
2021/07/24 05:56:41;;;;;;;18.70;13.48;;;;;;;;;;6155412;28;20059;-83
2021/07/24 06:00:01;;;;;;;18.45;12.68;;;;;;;;;;6129266;28;20138;-84
2021/07/24 06:03:24;;;;;;;18.88;12.38;;;;;;;;;;6091271;28;20050;-83
2021/07/24 06:06:35;;;;;;;18.48;13.05;;;;;;;;;;6159977;28;20056;-82
2021/07/24 06:09:39;;;;;;;19.27;12.90;;;;;;;;;;6174954;28;20092;-83
2021/07/24 06:12:41;;;;;;;;;;;;;;;;;;6201841;28;20060;-84
2021/07/24 06:15:46;;;;;;;19.23;14.10;;;;;;;;;;6212977;28;20018;-84
2021/07/24 06:19:02;;;;;;;20.30;13.38;;;;;;;;;;6151662;28;20089;-83
2021/07/24 06:22:21;;;;;;;22.73;13.45;;;;;;;;;;6152291;28;20058;-83
2021/07/24 06:25:26;;;;;;;16.50;11.88;;;;;;;;;;6180488;28;20060;-82
2021/07/24 06:28:30;;;;;;;15.93;10.90;;;;;;;;;;6163740;28;20049;-85
2021/07/24 06:31:36;;;;;;;18.35;12.18;;;;;;;;;;6192408;28;20045;-84
2021/07/24 06:34:54;;;;;;;16.88;12.35;;;;;;;;;;6159813;28;20564;-83
2021/07/24 06:38:12;;;;;;;17.52;11.27;;;;;;;;;;6169537;28;20140;-84
2021/07/24 06:41:35;;;;;;;17.23;11.30;;;;;;;;;;6131362;28;20113;-84
2021/07/24 06:44:52;;;;;;;15.48;9.85;;;;;;;;;;6138608;28;20041;-82
2021/07/24 06:47:55;;;;;;;12.88;8.88;;;;;;;;;;6233452;28;20041;-83
2021/07/24 06:50:57;;;;;;;13.40;9.35;;;;;;;;;;6232609;28;20049;-83
2021/07/24 06:54:01;;;;;;;11.50;9.33;;;;;;;;;;6225813;28;20041;-83
2021/07/24 06:57:03;;;;;;;12.82;8.82;;;;;;;;;;6255077;28;20051;-83
2021/07/24 07:00:06;;;;;;;14.73;9.40;;;;;;;;;;6223472;28;20052;-83
2021/07/24 07:03:07;;;;;;;16.17;9.45;;;;;;;;;;6232508;28;20121;-83
2021/07/24 07:06:13;;;;;;;14.18;9.43;;;;;;;;;;6259598;28;20121;-83
2021/07/24 07:09:15;;;;;;;14.95;8.95;;;;;;;;;;6231741;28;20049;-84
2021/07/24 07:12:19;;;;;;;15.75;9.23;;;;;;;;;;6245944;28;20526;-83
2021/07/24 07:15:24;;;;;;;13.65;9.18;;;;;;;;;;6238041;28;20057;-83
2021/07/24 07:18:27;;;;;;;14.85;9.23;;;;;;;;;;6183891;28;20126;-83
2021/07/24 07:21:29;;;;;;;11.70;8.48;;;;;;;;;;6205706;28;20046;-84
2021/07/24 07:24:33;;;;;;;13.38;9.32;;;;;;;;;;6192465;28;20084;-83
2021/07/24 07:27:44;;;;;;;13.80;9.82;;;;;;;;;;6157107;28;20046;-83
2021/07/24 07:31:15;;;;;;;13.60;9.30;;;;;;;;;;6173555;28;20051;-84
2021/07/24 07:34:31;;;;;;;;;;;;;;;;;;6084456;28;20049;-83
2021/07/24 07:38:06;;;;;;;14.13;9.10;;;;;;;;;;6165184;28;19991;-83
2021/07/24 07:41:14;;;;;;;15.68;9.35;;;;;;;;;;6252317;28;20700;-83
2021/07/24 07:44:50;;;;;;;12.60;9.20;;;;;;;;;;6194715;28;20042;-83
2021/07/24 07:47:52;;;;;;;13.85;9.15;;;;;;;;;;6234652;28;20041;-83
2021/07/24 07:50:54;;;;;;;15.93;9.50;;;;;;;;;;6231602;28;20038;-83
2021/07/24 07:53:55;;;;;;;15.75;9.98;;;;;;;;;;6259509;28;20453;-83
2021/07/24 07:56:57;;;;;;;11.47;8.93;;;;;;;;;;6263518;28;20133;-83
2021/07/24 07:59:59;;;;;;;13.55;9.45;;;;;;;;;;6234682;28;20048;-83
2021/07/24 08:03:01;;;;;;;13.15;8.98;;;;;;;;;;6255808;28;20049;-83
2021/07/24 08:06:04;;;;;;;12.25;9.00;;;;;;;;;;6263528;28;20041;-83
2021/07/24 08:09:06;;;;;;;12.63;8.75;;;;;;;;;;6235523;28;20056;-83
2021/07/24 08:12:11;;;;;;;12.60;8.67;;;;;;;;;;6186868;28;20057;-83
2021/07/24 08:15:13;;;;;;;12.55;9.07;;;;;;;;;;6193600;28;20133;-83
2021/07/24 08:18:15;;;;;;;14.60;9.37;;;;;;;;;;6204363;28;20515;-82
2021/07/24 08:21:17;;;;;;;11.95;9.02;;;;;;;;;;6195289;28;20456;-83
2021/07/24 08:24:19;;;;;;;13.57;9.68;;;;;;;;;;6203198;28;20056;-82
2021/07/24 08:27:22;;;;;;;12.00;8.45;;;;;;;;;;6196203;28;20137;-82
2021/07/24 08:30:24;;;;;;;11.38;8.93;;;;;;;;;;6169511;28;20060;-82
2021/07/24 08:33:29;;;;;;;14.80;9.18;;;;;;;;;;6207965;28;20056;-83
2021/07/24 08:36:31;;;;;;;12.93;9.33;;;;;;;;;;6242665;28;20053;-82
2021/07/24 08:39:35;;;;;;;13.25;9.77;;;;;;;;;;6244435;28;20134;-83
2021/07/24 08:42:39;;;;;;;14.52;9.98;;;;;;;;;;6248699;28;20072;-82
2021/07/24 08:45:42;;;;;;;14.27;9.55;;;;;;;;;;6230821;28;20057;-80
2021/07/24 08:48:44;;;;;;;12.02;9.60;;;;;;;;;;6233315;28;20038;-81
2021/07/24 08:51:48;;;;;;;14.82;9.52;;;;;;;;;;6225621;28;20053;-82
2021/07/24 08:54:50;;;;;;;14.57;9.63;;;;;;;;;;6220925;28;20471;-82
2021/07/24 08:57:54;;;;;;;14.55;9.82;;;;;;;;;;6249099;28;20081;-82
2021/07/24 09:00:56;;;;;;;13.55;9.57;;;;;;;;;;6248328;28;20048;-81
2021/07/24 09:04:03;;;;;;;10.43;9.32;;;;;;;;;;6211136;28;20042;-80
2021/07/24 09:07:06;;;;;;;13.05;9.77;;;;;;;;;;6222935;28;20101;-80
2021/07/24 09:10:08;;;;;;;;;;;;;;;;;;6221810;28;20054;-84
2021/07/24 09:13:10;;;;;;;16.40;10.20;;;;;;;;;;6244874;28;19997;-84
2021/07/24 09:16:11;;;;;;;14.50;11.05;;;;;;;;;;6215300;28;20834;-85
2021/07/24 09:19:15;;;;;;;14.25;10.05;;;;;;;;;;6231738;28;20064;-84
2021/07/24 09:22:40;;;;;;;16.13;10.85;;;;;;;;;;6225281;28;20045;-84
2021/07/24 09:25:42;;;;;;;12.88;10.73;;;;;;;;;;6236205;28;20120;-84
2021/07/24 09:29:14;;;;;;;12.95;10.18;;;;;;;;;;6116108;28;20055;-83
2021/07/24 09:32:25;;;;;;;14.35;10.55;;;;;;;;;;6174920;28;20105;-83
2021/07/24 09:35:42;;;;;;;14.75;9.98;;;;;;;;;;6236881;28;20061;-83
2021/07/24 09:39:10;;;;;;;14.35;10.07;;;;;;;;;;6216485;28;20107;-84
2021/07/24 09:42:12;;;;;;;16.52;10.98;;;;;;;;;;6192357;28;20050;-84
2021/07/24 09:45:22;;;;;;;13.43;10.80;;;;;;;;;;6199291;28;20092;-83
2021/07/24 09:48:31;;;;;;;14.52;11.23;;;;;;;;;;6204498;28;20042;-84
2021/07/24 09:51:39;;;;;;;15.20;11.75;;;;;;;;;;6155259;28;20137;-82
2021/07/24 09:54:42;;;;;;;14.88;10.98;;;;;;;;;;6217955;28;20066;-83
2021/07/24 09:57:47;;;;;;;14.70;11.27;;;;;;;;;;6225520;28;20049;-83
2021/07/24 10:01:02;;;;;;;15.38;11.23;;;;;;;;;;6197291;28;20053;-83
2021/07/24 10:04:07;;;;;;;14.60;11.10;;;;;;;;;;6201791;28;20045;-84
2021/07/24 10:07:12;;;;;;;13.80;11.00;;;;;;;;;;6226193;28;20042;-83
2021/07/24 10:10:27;;;;;;;15.45;11.38;;;;;;;;;;6192641;28;20071;-84
2021/07/24 10:13:40;;;;;;;15.15;11.13;;;;;;;;;;6193657;28;20180;-83
2021/07/24 10:16:49;;;;;;;14.40;10.55;;;;;;;;;;6161513;28;20085;-83
2021/07/24 10:19:55;;;;;;;15.05;10.07;;;;;;;;;;6153829;28;20531;-84
2021/07/24 10:23:00;;;;;;;14.20;11.05;;;;;;;;;;6196140;28;20046;-84
2021/07/24 10:26:29;;;;;;;17.80;12.23;;;;;;;;;;6151684;28;20046;-84
2021/07/24 10:29:35;;;;;;;14.05;11.00;;;;;;;;;;6188442;28;20517;-84
2021/07/24 10:32:39;;;;;;;16.05;11.27;;;;;;;;;;6208973;28;20124;-83
2021/07/24 10:35:42;;;;;;;16.58;12.00;;;;;;;;;;6199631;28;20526;-84
2021/07/24 10:38:58;;;;;;;18.27;12.25;;;;;;;;;;6255165;28;20517;-84
2021/07/24 10:42:11;;;;;;;17.05;11.77;;;;;;;;;;6244900;28;20041;-85
2021/07/24 10:45:36;;;;;;;16.52;11.40;;;;;;;;;;6186383;28;20046;-84
2021/07/24 10:48:44;;;;;;;18.33;12.70;;;;;;;;;;6217021;28;20040;-85
2021/07/24 10:51:54;;;;;;;16.55;11.70;;;;;;;;;;6201478;28;20037;-84
2021/07/24 10:55:00;;;;;;;16.70;12.00;;;;;;;;;;6210731;28;20049;-83
2021/07/24 10:58:02;;;;;;;16.48;11.50;;;;;;;;;;6252157;28;20076;-81
2021/07/24 11:01:06;;;;;;;17.63;11.65;;;;;;;;;;6238720;28;20037;-82
2021/07/24 11:04:37;;;;;;;17.55;12.38;;;;;;;;;;6245157;28;20042;-82
2021/07/24 11:07:40;;;;;;;17.13;12.25;;;;;;;;;;6245458;28;20105;-82
2021/07/24 11:11:08;;;;;;;16.88;11.77;;;;;;;;;;6245555;28;20053;-81
2021/07/24 11:14:30;;;;;;;16.73;12.07;;;;;;;;;;6184316;28;20042;-81
2021/07/24 11:17:32;;;;;;;16.52;11.45;;;;;;;;;;6247167;28;20055;-81
2021/07/24 11:20:46;;;;;;;15.70;11.30;;;;;;;;;;6248688;28;20045;-81
2021/07/24 11:24:13;;;;;;;16.40;12.07;;;;;;;;;;6232029;28;20095;-81
2021/07/24 11:27:15;;;;;;;17.27;11.32;;;;;;;;;;6194663;28;20045;-81
2021/07/24 11:30:22;;;;;;;;;;;;;;;;;;6224852;28;20045;-82
2021/07/24 11:33:28;;;;;;;17.65;12.20;;;;;;;;;;6245398;28;20370;-82
2021/07/24 11:36:30;;;;;;;16.60;12.50;;;;;;;;;;6249750;28;20095;-82
2021/07/24 11:39:35;;;;;;;17.58;12.65;;;;;;;;;;6249735;28;20124;-83
2021/07/24 11:42:37;;;;;;;17.63;12.00;;;;;;;;;;6249366;28;20120;-81
2021/07/24 11:45:39;;;;;;;17.02;11.93;;;;;;;;;;6213990;28;20104;-82
2021/07/24 11:48:42;;;;;;;15.57;12.05;;;;;;;;;;6221272;28;20136;-81
2021/07/24 11:51:46;;;;;;;14.90;11.95;;;;;;;;;;6250890;28;20052;-81
2021/07/24 11:54:51;;;;;;;14.73;11.48;;;;;;;;;;6250358;28;20479;-81
2021/07/24 11:58:04;;;;;;;16.42;11.32;;;;;;;;;;6250385;28;20054;-81
2021/07/24 12:01:20;;;;;;;15.05;11.20;;;;;;;;;;6228447;28;20041;-81
2021/07/24 12:04:22;;;;;;;14.75;11.32;;;;;;;;;;6212391;28;20045;-81
2021/07/24 12:07:24;;;;;;;14.15;11.40;;;;;;;;;;6211491;28;20049;-81
2021/07/24 12:10:26;;;;;;;13.75;11.18;;;;;;;;;;6216389;28;20049;-81
2021/07/24 12:13:28;;;;;;;14.20;10.75;;;;;;;;;;6250858;28;20052;-81
2021/07/24 12:16:37;;;;;;;;;;;;;;;;;;6255222;28;20038;-81
2021/07/24 12:19:44;;;;;;;14.25;10.95;;;;;;;;;;6209598;28;19948;-80
2021/07/24 12:22:46;;;;;;;15.00;11.27;;;;;;;;;;6207002;28;20038;-80
2021/07/24 12:26:11;;;;;;;14.95;10.82;;;;;;;;;;6222821;28;20106;-80
2021/07/24 12:29:12;;;;;;;14.70;11.52;;;;;;;;;;6221472;28;20045;-80
2021/07/24 12:32:14;;;;;;;14.50;10.50;;;;;;;;;;6227060;28;20481;-81
2021/07/24 12:35:16;;;;;;;14.27;10.87;;;;;;;;;;6233038;28;20041;-81
2021/07/24 12:38:27;;;;;;;15.50;11.35;;;;;;;;;;6232229;28;20535;-81
2021/07/24 12:41:34;;;;;;;13.50;9.80;;;;;;;;;;6249514;28;20072;-81
2021/07/24 12:44:52;;;;;;;14.43;11.00;;;;;;;;;;6208702;28;20161;-82
2021/07/24 12:47:53;;;;;;;15.75;10.88;;;;;;;;;;6236042;28;20046;-81
2021/07/24 12:51:05;;;;;;;14.17;11.07;;;;;;;;;;6252665;28;20095;-81
2021/07/24 12:54:12;;;;;;;13.98;10.90;;;;;;;;;;6235715;28;20069;-82
2021/07/24 12:57:14;;;;;;;15.77;11.07;;;;;;;;;;6232646;28;20044;-81
2021/07/24 13:00:20;;;;;;;17.60;10.98;;;;;;;;;;6207780;28;20072;-81
2021/07/24 13:03:22;;;;;;;13.65;10.05;;;;;;;;;;6251857;28;20054;-81
2021/07/24 13:06:28;;;;;;;12.98;9.82;;;;;;;;;;6244863;28;20123;-80
2021/07/24 13:09:29;;;;;;;15.77;10.30;;;;;;;;;;6220882;28;20041;-81
2021/07/24 13:12:31;;;;;;;18.10;11.00;;;;;;;;;;6249374;28;20702;-81
2021/07/24 13:15:33;;;;;;;15.52;11.27;;;;;;;;;;6246391;28;20045;-81
2021/07/24 13:18:35;;;;;;;14.65;10.82;;;;;;;;;;6245394;28;20108;-81
2021/07/24 13:21:37;;;;;;;15.45;11.30;;;;;;;;;;6242855;28;20045;-81
2021/07/24 13:24:39;;;;;;;15.63;11.60;;;;;;;;;;6232054;28;20125;-81
2021/07/24 13:31:01;;;;;;;16.48;11.95;;;;;;;;;;6221140;28;20439;-82
2021/07/24 13:34:03;;;;;;;16.08;11.80;;;;;;;;;;6221425;28;20050;-81
2021/07/24 13:37:05;;;;;;;16.97;12.27;;;;;;;;;;6215768;28;20199;-81
2021/07/24 13:40:08;;;;;;;16.88;12.25;;;;;;;;;;6244263;28;20451;-81
2021/07/24 13:43:09;;;;;;;16.75;12.32;;;;;;;;;;6236599;28;20095;-82
2021/07/24 13:46:11;;;;;;;16.80;12.63;;;;;;;;;;6208718;28;20061;-83
2021/07/24 13:49:13;;;;;;;19.45;14.07;;;;;;;;;;6237293;28;20072;-83
2021/07/24 13:52:20;;;;;;;20.92;14.52;;;;;;;;;;6218395;28;20057;-84
2021/07/24 13:56:02;;;;;;;18.97;14.30;;;;;;;;;;6189653;28;20073;-83
2021/07/24 14:00:09;;;;;;;20.70;14.48;;;;;;;;;;6205224;28;20046;-85
2021/07/24 14:03:21;;;;;;;20.80;14.40;;;;;;;;;;6210131;28;20059;-84
2021/07/24 14:06:24;;;;;;;20.63;14.15;;;;;;;;;;6194520;28;20092;-85
2021/07/24 14:09:28;;;;;;;21.67;14.48;;;;;;;;;;6206588;28;20041;-85
2021/07/24 14:12:29;;;;;;;21.73;13.90;;;;;;;;;;6226685;28;20330;-85
2021/07/24 14:15:52;;;;;;;19.27;13.20;;;;;;;;;;6229462;28;20071;-86
2021/07/24 14:18:54;;;;;;;20.00;14.50;;;;;;;;;;6180087;28;20058;-84
2021/07/24 14:22:04;;;;;;;19.13;14.05;;;;;;;;;;6182929;28;20078;-83
2021/07/24 14:26:05;;;;;;;20.17;13.30;;;;;;;;;;6207835;28;20137;-84
2021/07/24 14:36:01;;;;;;;17.70;11.90;;;;;;;;;;6195334;28;20038;-84
2021/07/24 14:39:15;;;;;;;17.63;12.02;;;;;;;;;;6170074;28;20129;-84
2021/07/24 14:42:17;;;;;;;19.98;13.25;;;;;;;;;;6158101;28;20526;-84
2021/07/24 14:45:24;;;;;;;16.88;11.35;;;;;;;;;;6184305;28;20056;-84
2021/07/24 14:48:26;;;;;;;14.70;10.93;;;;;;;;;;6192871;28;20042;-83
2021/07/24 14:51:29;;;;;;;17.13;12.07;;;;;;;;;;6220789;28;20038;-83
2021/07/24 14:54:34;;;;;;;17.48;11.88;;;;;;;;;;6210122;28;20410;-85
2021/07/24 14:57:36;;;;;;;16.45;11.82;;;;;;;;;;6190528;28;20123;-85
2021/07/24 15:00:38;;;;;;;17.10;11.97;;;;;;;;;;6214418;28;20124;-83
2021/07/24 15:03:45;;;;;;;17.25;10.65;;;;;;;;;;6235077;28;20060;-84
2021/07/24 15:06:48;;;;;;;15.27;11.18;;;;;;;;;;6216372;28;20060;-84
2021/07/24 15:09:56;;;;;;;13.75;10.38;;;;;;;;;;6208189;28;20088;-84
2021/07/24 15:13:32;;;;;;;14.77;10.52;;;;;;;;;;6127779;28;20065;-83
2021/07/24 15:17:28;;;;;;;14.73;10.77;;;;;;;;;;6210500;28;20046;-83
2021/07/24 15:20:32;;;;;;;16.98;11.27;;;;;;;;;;6214470;28;20042;-83
2021/07/24 15:23:40;;;;;;;14.77;11.02;;;;;;;;;;6198664;28;20049;-83
2021/07/24 15:26:44;;;;;;;14.07;10.73;;;;;;;;;;6201227;28;20046;-83
2021/07/24 15:29:48;;;;;;;15.50;11.00;;;;;;;;;;6225743;28;20071;-85
2021/07/24 15:32:51;;;;;;;14.98;10.98;;;;;;;;;;6204642;28;20041;-84
2021/07/24 15:35:53;;;;;;;17.30;11.63;;;;;;;;;;6196857;28;20042;-83
2021/07/24 15:38:55;;;;;;;17.02;12.02;;;;;;;;;;6204443;28;20065;-83
2021/07/24 15:41:57;;;;;;;16.58;11.85;;;;;;;;;;6233343;28;20068;-84
2021/07/24 15:44:58;;;;;;;17.60;12.60;;;;;;;;;;6231428;28;20068;-84
2021/07/24 15:48:00;;;;;;;14.57;11.63;;;;;;;;;;6222029;28;20045;-83
2021/07/24 15:51:03;;;;;;;17.13;12.63;;;;;;;;;;6224664;28;20522;-84
2021/07/24 15:54:04;;;;;;;16.70;12.50;;;;;;;;;;6214292;28;20045;-83
2021/07/24 15:57:06;;;;;;;17.05;12.73;;;;;;;;;;6242612;28;20104;-83
2021/07/24 16:00:08;;;;;;;19.60;13.03;;;;;;;;;;6222060;28;20042;-83
2021/07/24 16:03:13;;;;;;;16.67;12.70;;;;;;;;;;6244618;28;20410;-84
2021/07/24 16:06:15;;;;;;;15.52;12.05;;;;;;;;;;6212243;28;20045;-84
2021/07/24 16:09:17;;;;;;;16.30;12.57;;;;;;;;;;6219214;28;20057;-84
2021/07/24 16:12:18;;;;;;;15.80;11.98;;;;;;;;;;6209888;28;21084;-85
2021/07/24 16:15:40;;;;;;;17.08;11.90;;;;;;;;;;6187623;28;20879;-85
2021/07/24 16:18:42;;;;;;;18.07;12.17;;;;;;;;;;6204081;28;20567;-84
2021/07/24 16:21:44;;;;;;;16.70;12.38;;;;;;;;;;6200040;28;20041;-84
2021/07/24 16:24:47;;;;;;;15.98;11.90;;;;;;;;;;6239473;28;20060;-84
2021/07/24 16:27:51;;;;;;;17.10;12.20;;;;;;;;;;6219825;28;20042;-84
2021/07/24 16:30:52;;;;;;;15.82;11.68;;;;;;;;;;6204857;28;20077;-84
2021/07/24 16:33:54;;;;;;;14.38;11.23;;;;;;;;;;6220839;28;20478;-85
2021/07/24 16:36:57;;;;;;;18.48;11.98;;;;;;;;;;6162795;28;20057;-85
2021/07/24 16:39:59;;;;;;;16.00;11.50;;;;;;;;;;6212211;28;20458;-85
2021/07/24 16:43:01;;;;;;;18.30;13.73;;;;;;;;;;6222008;28;20057;-85
2021/07/24 16:46:02;;;;;;;18.20;12.25;;;;;;;;;;6229967;28;20048;-85
2021/07/24 16:49:04;;;;;;;17.05;11.65;;;;;;;;;;6219754;28;20059;-85
2021/07/24 16:52:09;;;;;;;19.50;13.23;;;;;;;;;;6222992;28;20050;-85
2021/07/24 16:55:11;;;;;;;17.55;11.95;;;;;;;;;;6204191;28;20355;-86
2021/07/24 16:58:13;;;;;;;18.98;13.48;;;;;;;;;;6205515;28;20045;-85
2021/07/24 17:01:15;;;;;;;20.15;12.20;;;;;;;;;;6196939;28;20070;-84
2021/07/24 17:04:17;;;;;;;18.83;12.82;;;;;;;;;;6198323;28;20064;-85
2021/07/24 17:07:21;;;;;;;17.65;12.93;;;;;;;;;;6224129;28;20095;-85
2021/07/24 17:10:23;;;;;;;18.13;12.45;;;;;;;;;;6215219;28;20049;-84
2021/07/24 17:13:24;;;;;;;15.68;12.35;;;;;;;;;;6201227;28;20057;-85
2021/07/24 17:16:26;;;;;;;16.70;13.13;;;;;;;;;;6205741;28;20130;-87
2021/07/24 17:19:29;;;;;;;18.10;12.70;;;;;;;;;;6207510;28;20525;-87
2021/07/24 17:22:32;;;;;;;15.63;11.75;;;;;;;;;;6213910;28;20041;-84
2021/07/24 17:25:35;;;;;;;16.83;12.23;;;;;;;;;;6210622;28;20049;-83
2021/07/24 17:28:38;;;;;;;19.70;13.82;;;;;;;;;;6219720;28;20049;-83
2021/07/24 17:31:42;;;;;;;19.40;13.50;;;;;;;;;;6200905;28;20061;-84
2021/07/24 17:34:50;;;;;;;17.55;12.18;;;;;;;;;;6213476;28;20113;-83
2021/07/24 17:37:55;;;;;;;20.17;13.98;;;;;;;;;;6231646;28;20056;-83
2021/07/24 17:40:57;;;;;;;20.98;13.15;;;;;;;;;;6215591;28;20073;-84
2021/07/24 17:43:59;;;;;;;18.75;12.75;;;;;;;;;;6228520;28;20056;-83
2021/07/24 17:47:01;;;;;;;19.48;13.48;;;;;;;;;;6206363;28;20053;-84
2021/07/24 17:50:03;;;;;;;19.48;13.75;;;;;;;;;;6220222;28;20049;-84
2021/07/24 17:53:07;;;;;;;18.17;13.55;;;;;;;;;;6221704;28;20108;-83
2021/07/24 17:56:13;;;;;;;21.45;13.43;;;;;;;;;;6216906;28;20041;-83
2021/07/24 17:59:17;;;;;;;19.40;13.85;;;;;;;;;;6215749;28;20045;-83
2021/07/24 18:02:19;;;;;;;18.52;13.68;;;;;;;;;;6228433;28;20049;-84
2021/07/24 18:05:34;;;;;;;19.13;13.80;;;;;;;;;;6215278;28;20093;-83
2021/07/24 18:08:39;;;;;;;20.63;14.38;;;;;;;;;;6228468;28;20037;-83
2021/07/24 18:11:41;;;;;;;19.83;13.02;;;;;;;;;;6236476;28;20053;-84
2021/07/24 18:14:43;;;;;;;18.33;13.57;;;;;;;;;;6219617;28;20037;-84
2021/07/24 18:17:44;;;;;;;20.33;14.27;;;;;;;;;;6211739;28;20052;-83
2021/07/24 18:20:46;;;;;;;18.75;13.13;;;;;;;;;;6219817;28;20060;-84